Time;durP1;ratioP1;P1;durP2;ratioP2;P2;SDS_P1;SDS_P2;PMS_P1;PMS_P2;Temp;Humidity;BMP_temperature;BMP_pressure;BME280_temperature;BME280_humidity;BME280_pressure;Samples;Min_cycle;Max_cycle;Signal;HPM_P1;HPM_P2
2021/08/21 04:00:29;;;;;;;10.90;9.73;;;17.80;99.90;;;;;;6132770;22;21187;31
2021/08/21 04:02:56;;;;;;;9.83;8.93;;;17.80;99.90;;;;;;4995315;28;20488;-66
2021/08/21 04:05:24;;;;;;;10.33;9.47;;;17.80;99.90;;;;;;4997192;28;20529;-66
2021/08/21 04:07:51;;;;;;;9.80;9.00;;;17.80;99.90;;;;;;4996971;28;20485;-66
2021/08/21 04:10:17;;;;;;;9.77;8.87;;;17.80;99.90;;;;;;4995541;28;20453;-66
2021/08/21 04:12:44;;;;;;;9.03;8.37;;;17.80;99.90;;;;;;4977162;28;20462;-66
2021/08/21 04:15:11;;;;;;;8.90;8.10;;;17.70;99.90;;;;;;4977238;28;20462;-66
2021/08/21 04:17:39;;;;;;;8.87;8.17;;;17.70;99.90;;;;;;4977405;28;20505;-66
2021/08/21 04:20:07;;;;;;;10.47;9.53;;;17.70;99.90;;;;;;4977336;28;20458;-66
2021/08/21 04:22:34;;;;;;;9.20;8.50;;;17.70;99.90;;;;;;4977462;28;20475;-65
2021/08/21 04:25:01;;;;;;;9.17;8.37;;;17.70;99.90;;;;;;4978187;28;20454;-65
2021/08/21 04:27:27;;;;;;;9.40;8.60;;;17.70;99.90;;;;;;4977243;28;20454;-65
2021/08/21 04:29:54;;;;;;;9.13;8.30;;;17.70;99.90;;;;;;4977043;28;20938;-66
2021/08/21 04:32:21;;;;;;;9.67;8.77;;;17.70;99.90;;;;;;4976634;28;20985;-66
2021/08/21 04:34:49;;;;;;;9.20;8.33;;;17.60;99.90;;;;;;4977182;28;20822;-67
2021/08/21 04:37:17;;;;;;;10.27;9.27;;;17.70;99.90;;;;;;4977053;28;20458;-66
2021/08/21 04:39:44;;;;;;;9.83;9.03;;;17.60;99.90;;;;;;4977090;28;20455;-67
2021/08/21 04:42:10;;;;;;;11.70;9.93;;;17.60;99.90;;;;;;4977255;28;20478;-66
2021/08/21 04:44:37;;;;;;;10.60;9.80;;;17.60;99.90;;;;;;4977052;28;20494;-66
2021/08/21 04:47:04;;;;;;;9.60;8.80;;;17.60;99.90;;;;;;4977081;28;20454;-72
2021/08/21 04:49:31;;;;;;;12.60;9.00;;;17.60;99.90;;;;;;4976435;28;20815;-67
2021/08/21 04:51:59;;;;;;;10.00;9.10;;;17.60;99.90;;;;;;4976571;28;20479;-67
2021/08/21 04:54:26;;;;;;;8.73;8.03;;;17.70;99.90;;;;;;4976933;28;20485;-67
2021/08/21 04:56:53;;;;;;;9.10;8.30;;;17.70;99.90;;;;;;4976756;28;20466;-67
2021/08/21 04:59:19;;;;;;;9.10;8.40;;;17.80;99.90;;;;;;4976799;28;20459;-66
2021/08/21 05:01:46;;;;;;;9.23;8.37;;;17.70;99.90;;;;;;4976520;28;20487;-65
2021/08/21 05:04:13;;;;;;;8.93;8.23;;;17.70;99.90;;;;;;4976730;28;20478;-66
2021/08/21 05:06:40;;;;;;;9.53;8.80;;;17.70;99.90;;;;;;4976537;28;20454;-66
2021/08/21 05:09:08;;;;;;;9.87;9.07;;;17.80;99.90;;;;;;4976674;28;20454;-67
2021/08/21 05:11:34;;;;;;;9.47;8.77;;;17.80;99.90;;;;;;4976652;28;20477;-67
2021/08/21 05:14:01;;;;;;;8.93;8.30;;;17.80;99.90;;;;;;4976843;28;20462;-67
2021/08/21 05:16:28;;;;;;;10.30;9.40;;;17.70;99.90;;;;;;4976610;28;20464;-66
2021/08/21 05:18:58;;;;;;;10.23;9.33;;;17.70;99.90;;;;;;4976465;28;20514;-66
2021/08/21 05:21:27;;;;;;;9.80;8.87;;;17.70;99.90;;;;;;4976579;28;20969;-66
2021/08/21 05:23:55;;;;;;;9.50;8.80;;;17.80;99.90;;;;;;4976271;28;20824;-66
2021/08/21 05:26:23;;;;;;;9.50;8.67;;;17.80;99.90;;;;;;4976386;28;20462;-68
2021/08/21 05:28:50;;;;;;;9.67;8.87;;;17.80;99.90;;;;;;4976760;28;20466;-67
2021/08/21 05:31:16;;;;;;;10.10;9.13;;;17.90;99.90;;;;;;4976160;28;20470;-67
2021/08/21 05:33:43;;;;;;;10.90;9.80;;;18.00;99.90;;;;;;4976311;28;20458;-67
2021/08/21 05:36:10;;;;;;;11.10;10.20;;;18.10;99.90;;;;;;4975985;28;20968;-66
2021/08/21 05:38:37;;;;;;;14.93;9.50;;;18.10;99.90;;;;;;4976799;28;20470;-67
2021/08/21 05:41:04;;;;;;;11.70;10.50;;;18.20;99.90;;;;;;4977250;28;20481;-66
2021/08/21 05:43:32;;;;;;;11.13;10.13;;;18.30;99.90;;;;;;4976842;28;20477;-66
2021/08/21 05:45:58;;;;;;;11.10;10.10;;;18.30;99.90;;;;;;4976493;28;20450;-66
2021/08/21 05:48:25;;;;;;;10.60;9.90;;;18.30;99.90;;;;;;4976394;28;20465;-67
2021/08/21 05:50:52;;;;;;;11.40;10.50;;;18.40;99.90;;;;;;4976320;28;20481;-66
2021/08/21 05:53:18;;;;;;;9.73;8.90;;;18.60;99.90;;;;;;4975977;28;20928;-66
2021/08/21 05:55:45;;;;;;;10.10;9.20;;;18.90;99.90;;;;;;4976230;28;20455;-66
2021/08/21 05:58:12;;;;;;;15.13;10.80;;;19.00;99.90;;;;;;4975892;28;20458;-66
2021/08/21 06:00:40;;;;;;;13.43;9.43;;;19.30;99.90;;;;;;4975677;28;20490;-66
2021/08/21 06:03:06;;;;;;;10.00;9.10;;;19.50;99.90;;;;;;4976456;28;20880;-66
2021/08/21 06:05:33;;;;;;;9.90;8.90;;;19.70;99.90;;;;;;4976238;28;20470;-67
2021/08/21 06:08:00;;;;;;;10.47;9.50;;;19.90;99.90;;;;;;4976341;28;20462;-65
2021/08/21 06:10:27;;;;;;;11.20;9.40;;;19.90;99.90;;;;;;4975507;28;20466;-66
2021/08/21 06:12:53;;;;;;;10.40;9.40;;;20.00;99.90;;;;;;4975563;28;20946;-66
2021/08/21 06:15:20;;;;;;;10.00;9.20;;;20.10;99.90;;;;;;4975578;28;20459;-65
2021/08/21 06:17:48;;;;;;;10.03;9.07;;;20.20;99.90;;;;;;4975561;28;20455;-66
2021/08/21 06:20:15;;;;;;;11.40;9.57;;;20.30;99.90;;;;;;4975330;28;20465;-66
2021/08/21 06:22:42;;;;;;;9.70;8.73;;;20.50;99.90;;;;;;4975513;28;20482;-65
2021/08/21 06:25:10;;;;;;;9.47;8.67;;;20.60;99.90;;;;;;4975477;28;20454;-65
2021/08/21 06:27:37;;;;;;;8.60;7.90;;;20.90;99.90;;;;;;4975498;28;20451;-66
2021/08/21 06:30:06;;;;;;;9.03;8.20;;;21.10;99.90;;;;;;4975327;28;20454;-66
2021/08/21 06:32:33;;;;;;;9.63;8.80;;;21.40;99.90;;;;;;4976051;28;20479;-65
2021/08/21 06:35:01;;;;;;;9.53;8.67;;;21.50;99.90;;;;;;4975536;28;20458;-65
2021/08/21 06:37:27;;;;;;;9.00;8.20;;;21.60;99.90;;;;;;4975316;28;20465;-65
2021/08/21 06:39:54;;;;;;;9.90;9.00;;;21.70;99.90;;;;;;4975335;28;20459;-66
2021/08/21 06:42:21;;;;;;;9.03;8.30;;;21.90;99.90;;;;;;4974919;28;20510;-66
2021/08/21 06:44:49;;;;;;;8.90;8.30;;;22.30;99.90;;;;;;4975254;28;20960;-66
2021/08/21 06:47:17;;;;;;;9.77;8.43;;;22.60;99.90;;;;;;4975215;28;20454;-66
2021/08/21 06:49:43;;;;;;;8.90;8.10;;;23.10;99.90;;;;;;4975304;28;20454;-66
2021/08/21 06:52:12;;;;;;;8.83;8.23;;;23.40;99.90;;;;;;4976046;28;20485;-66
2021/08/21 06:54:39;;;;;;;7.77;7.10;;;23.60;99.90;;;;;;4975267;28;20453;-65
2021/08/21 06:57:05;;;;;;;7.93;7.20;;;23.90;99.90;;;;;;4975068;28;20458;-65
2021/08/21 06:59:32;;;;;;;8.77;8.07;;;24.00;99.90;;;;;;4975043;28;20961;-65
2021/08/21 07:02:01;;;;;;;8.30;7.63;;;24.20;99.90;;;;;;4974942;28;20490;-65
2021/08/21 07:04:28;;;;;;;8.80;8.10;;;24.30;99.90;;;;;;4975200;28;20479;-66
2021/08/21 07:06:55;;;;;;;7.60;7.00;;;24.30;99.90;;;;;;4975660;28;20469;-68
2021/08/21 07:09:23;;;;;;;7.73;7.23;;;24.30;99.90;;;;;;4974787;28;20855;-66
2021/08/21 07:11:49;;;;;;;7.97;7.30;;;24.50;99.90;;;;;;4976131;28;20478;-67
2021/08/21 07:14:16;;;;;;;7.93;7.33;;;24.50;99.90;;;;;;4978603;28;20454;-66
2021/08/21 07:16:43;;;;;;;8.10;7.40;;;24.80;99.90;;;;;;4978611;28;20532;-66
2021/08/21 07:19:09;;;;;;;7.90;7.20;;;25.00;99.90;;;;;;4978552;28;20492;-66
2021/08/21 07:21:36;;;;;;;9.60;8.60;;;25.70;99.90;;;;;;4978451;28;20486;-66
2021/08/21 07:24:03;;;;;;;6.70;6.20;;;26.20;99.90;;;;;;4978033;28;20475;-66
2021/08/21 07:26:33;;;;;;;7.27;6.77;;;26.50;99.90;;;;;;4979282;28;20458;-66
2021/08/21 07:28:59;;;;;;;7.07;6.60;;;27.00;99.90;;;;;;4978478;28;20822;-66
2021/08/21 07:31:26;;;;;;;5.63;5.23;;;27.50;99.90;;;;;;4981160;28;20478;-65
2021/08/21 07:33:53;;;;;;;6.80;6.27;;;28.00;99.90;;;;;;4985456;28;20451;-66
2021/08/21 07:36:20;;;;;;;5.50;4.97;;;28.60;99.90;;;;;;4981292;28;20458;-66
2021/08/21 07:38:47;;;;;;;5.63;5.20;;;28.70;99.90;;;;;;4978627;28;20875;-66
2021/08/21 07:41:14;;;;;;;6.83;4.93;;;29.00;99.10;;;;;;4978212;28;20471;-67
2021/08/21 07:43:42;;;;;;;5.47;5.13;;;29.40;97.50;;;;;;4978035;28;20478;-66
2021/08/21 07:46:08;;;;;;;5.90;5.30;;;29.20;96.80;;;;;;4977872;28;21001;-66
2021/08/21 07:48:35;;;;;;;6.37;5.03;;;29.50;96.80;;;;;;4977976;28;20469;-67
2021/08/21 07:51:02;;;;;;;4.40;4.20;;;29.90;95.20;;;;;;4978123;28;20477;-66
2021/08/21 07:53:28;;;;;;;5.50;5.10;;;30.30;94.80;;;;;;4977842;28;20450;-66
2021/08/21 07:55:55;;;;;;;5.37;4.97;;;30.40;92.50;;;;;;4977731;28;20550;-66
2021/08/21 07:58:22;;;;;;;5.00;4.70;;;30.40;92.20;;;;;;4978327;28;20465;-66
2021/08/21 08:00:50;;;;;;;6.17;5.47;;;30.50;92.00;;;;;;4978068;28;20482;-66
2021/08/21 08:03:17;;;;;;;5.13;4.83;;;30.90;91.80;;;;;;4977695;28;20489;-66
2021/08/21 08:05:44;;;;;;;11.67;5.00;;;31.20;91.70;;;;;;4978208;28;20463;-67
2021/08/21 08:08:16;;;;;;;5.20;4.80;;;31.40;90.10;;;;;;4978363;28;20454;-67
2021/08/21 08:10:43;;;;;;;5.60;5.30;;;31.40;87.60;;;;;;4978711;28;20478;-66
2021/08/21 08:13:10;;;;;;;3.90;3.70;;;31.90;87.60;;;;;;4977643;28;20450;-67
2021/08/21 08:15:37;;;;;;;4.83;4.53;;;32.10;86.70;;;;;;4977946;28;20466;-67
2021/08/21 08:18:05;;;;;;;5.17;4.73;;;32.60;86.30;;;;;;4977740;28;20481;-67
2021/08/21 08:20:31;;;;;;;5.67;5.00;;;33.20;83.50;;;;;;4978421;28;20484;-67
2021/08/21 08:22:58;;;;;;;5.73;5.37;;;33.40;83.10;;;;;;4976703;28;20467;-67
2021/08/21 08:25:25;;;;;;;6.20;5.70;;;33.60;78.90;;;;;;4977936;28;20454;-66
2021/08/21 08:27:52;;;;;;;6.20;5.60;;;33.90;78.50;;;;;;4977806;28;20461;-66
2021/08/21 08:30:19;;;;;;;5.60;5.10;;;34.00;79.00;;;;;;4977694;28;20458;-66
2021/08/21 08:32:45;;;;;;;5.63;5.13;;;34.10;77.70;;;;;;4977536;28;20462;-67
2021/08/21 08:35:13;;;;;;;6.13;5.63;;;34.40;77.30;;;;;;4977616;28;20450;-67
2021/08/21 08:37:41;;;;;;;5.87;5.47;;;34.80;76.00;;;;;;4977119;28;20458;-67
2021/08/21 08:40:10;;;;;;;5.20;4.80;;;34.90;74.00;;;;;;4977745;28;20470;-68
2021/08/21 08:42:40;;;;;;;9.73;4.83;;;34.90;71.70;;;;;;4977495;28;20454;-67
2021/08/21 08:45:08;;;;;;;5.77;5.37;;;34.70;70.00;;;;;;4977246;28;20517;-67
2021/08/21 08:47:36;;;;;;;6.80;5.77;;;35.00;69.00;;;;;;4977369;28;20463;-68
2021/08/21 08:50:05;;;;;;;7.20;5.50;;;34.30;69.50;;;;;;4977065;28;21016;-67
2021/08/21 08:52:34;;;;;;;5.10;4.80;;;34.30;69.50;;;;;;4977330;28;20481;-67
2021/08/21 08:55:01;;;;;;;5.87;5.47;;;34.60;70.50;;;;;;4976938;28;20450;-67
2021/08/21 08:57:35;;;;;;;6.07;5.60;;;34.20;69.50;;;;;;4977397;28;20459;-67
2021/08/21 09:00:04;;;;;;;6.23;5.80;;;34.40;69.40;;;;;;4976889;28;20453;-67
2021/08/21 09:02:36;;;;;;;6.10;5.50;;;33.70;69.30;;;;;;4976439;28;20493;-68
2021/08/21 09:05:05;;;;;;;6.30;5.67;;;33.50;72.60;;;;;;4977132;28;20479;-67
2021/08/21 09:07:41;;;;;;;5.70;5.10;;;33.80;71.40;;;;;;4976847;28;20819;-67
2021/08/21 09:10:13;;;;;;;6.13;5.70;;;33.90;76.20;;;;;;4976583;28;20454;-67
2021/08/21 09:12:39;;;;;;;6.10;5.50;;;34.30;70.40;;;;;;4977245;28;20465;-67
2021/08/21 09:15:19;;;;;;;6.73;6.17;;;34.70;69.20;;;;;;4976976;28;20458;-68
2021/08/21 09:17:59;;;;;;;7.00;6.40;;;35.20;67.80;;;;;;4977693;28;20446;-67
2021/08/21 09:20:26;;;;;;;5.77;5.20;;;35.70;65.90;;;;;;4976377;28;20910;-68
2021/08/21 09:23:07;;;;;;;6.00;4.90;;;36.00;69.00;;;;;;4976576;28;20947;-68
2021/08/21 09:25:33;;;;;;;4.47;4.00;;;35.70;65.30;;;;;;4976268;28;20462;-68
2021/08/21 09:28:15;;;;;;;4.83;4.53;;;35.60;64.40;;;;;;4976499;28;20458;-68
2021/08/21 09:30:42;;;;;;;6.30;5.70;;;36.00;64.80;;;;;;4976789;28;20485;-67
2021/08/21 09:33:08;;;;;;;5.37;5.07;;;36.00;64.70;;;;;;4976398;28;20459;-67
2021/08/21 09:35:35;;;;;;;5.17;4.77;;;36.30;67.10;;;;;;4975852;28;20794;-67
2021/08/21 09:38:03;;;;;;;4.20;4.00;;;36.60;62.90;;;;;;4976256;28;20806;-67
2021/08/21 09:40:31;;;;;;;4.37;4.07;;;37.20;60.50;;;;;;4976461;28;20461;-67
2021/08/21 09:42:59;;;;;;;5.63;5.00;;;37.20;62.70;;;;;;4976279;28;20459;-67
2021/08/21 09:45:26;;;;;;;5.43;5.03;;;37.20;60.20;;;;;;4976356;28;20480;-67
2021/08/21 09:48:00;;;;;;;5.53;5.00;;;37.20;64.70;;;;;;4976107;28;20808;-68
2021/08/21 09:50:31;;;;;;;4.93;4.67;;;37.60;61.20;;;;;;4975780;28;20950;-67
2021/08/21 09:53:03;;;;;;;4.50;4.20;;;37.90;57.80;;;;;;4976082;28;20464;-68
2021/08/21 09:55:31;;;;;;;5.30;5.00;;;37.70;58.80;;;;;;4975981;28;20454;-67
2021/08/21 09:58:03;;;;;;;7.10;5.13;;;37.90;59.90;;;;;;4975968;28;20878;-69
2021/08/21 10:00:31;;;;;;;4.90;4.60;;;38.50;58.40;;;;;;4975594;28;20471;-67
2021/08/21 10:02:58;;;;;;;5.13;4.80;;;38.80;56.40;;;;;;4976122;28;20448;-67
2021/08/21 10:05:26;;;;;;;5.17;4.70;;;39.10;55.40;;;;;;4975804;28;20487;-67
2021/08/21 10:07:57;;;;;;;5.20;4.90;;;38.50;54.30;;;;;;4975401;28;20466;-68
2021/08/21 10:10:29;;;;;;;6.10;4.93;;;38.20;55.60;;;;;;4975688;28;20452;-68
2021/08/21 10:13:06;;;;;;;5.10;4.80;;;38.00;55.50;;;;;;4976028;28;20442;-68
2021/08/21 10:15:37;;;;;;;5.70;5.40;;;37.80;57.00;;;;;;4976048;28;20447;-68
2021/08/21 10:18:05;;;;;;;5.20;4.90;;;37.90;56.10;;;;;;4976098;28;20476;-68
2021/08/21 10:20:31;;;;;;;5.70;5.20;;;38.20;58.80;;;;;;4975937;28;20490;-69
2021/08/21 10:22:58;;;;;;;5.90;5.40;;;38.30;55.90;;;;;;4976336;28;20458;-68
2021/08/21 10:25:27;;;;;;;7.33;6.73;;;38.30;55.40;;;;;;4976069;28;20486;-68
2021/08/21 10:27:57;;;;;;;6.77;6.33;;;38.10;55.60;;;;;;4976216;28;20478;-68
2021/08/21 10:30:40;;;;;;;5.77;5.37;;;38.20;57.20;;;;;;4975713;28;20452;-68
2021/08/21 10:33:07;;;;;;;6.47;5.87;;;38.20;57.20;;;;;;4976212;28;20450;-68
2021/08/21 10:35:48;;;;;;;6.50;6.10;;;37.90;56.10;;;;;;4975714;28;20480;-66
2021/08/21 10:38:36;;;;;;;5.70;5.30;;;37.60;57.00;;;;;;4975957;28;20442;-67
2021/08/21 10:41:35;;;;;;;6.00;5.50;;;37.70;56.70;;;;;;4975746;28;20484;-68
2021/08/21 10:44:02;;;;;;;6.70;6.10;;;38.00;55.70;;;;;;4975365;28;21053;-68
2021/08/21 10:46:51;;;;;;;6.77;6.10;;;38.00;56.60;;;;;;4976370;28;20485;-68
2021/08/21 10:49:45;;;;;;;8.47;6.03;;;38.10;55.80;;;;;;4979638;28;20500;-67
2021/08/21 10:52:52;;;;;;;5.73;5.40;;;38.40;57.00;;;;;;4979373;28;20478;-68
2021/08/21 10:55:22;;;;;;;6.53;5.77;;;38.30;62.50;;;;;;4979309;28;20460;-68
2021/08/21 10:58:05;;;;;;;8.63;6.83;;;38.00;56.50;;;;;;4979503;28;20443;-68
2021/08/21 11:00:52;;;;;;;12.27;5.77;;;37.80;55.70;;;;;;4979146;28;20563;-67
2021/08/21 11:03:57;;;;;;;6.50;6.10;;;37.40;55.90;;;;;;4979285;28;20553;-67
2021/08/21 11:06:36;;;;;;;6.60;6.10;;;37.40;56.30;;;;;;4979320;28;20441;-68
2021/08/21 11:09:23;;;;;;;6.07;5.67;;;37.50;56.80;;;;;;4979083;28;20444;-68
2021/08/21 11:11:51;;;;;;;9.00;8.40;;;37.50;59.00;;;;;;4979024;28;20992;-68
2021/08/21 11:14:39;;;;;;;7.20;6.60;;;37.00;57.30;;;;;;4978817;28;20488;-68
2021/08/21 11:17:11;;;;;;;6.63;6.23;;;37.00;57.40;;;;;;4979038;28;20439;-68
2021/08/21 11:19:44;;;;;;;6.80;6.40;;;37.00;57.80;;;;;;4978862;28;20931;-67
2021/08/21 11:22:27;;;;;;;8.07;7.50;;;36.30;58.60;;;;;;4978872;28;20481;-69
2021/08/21 11:25:03;;;;;;;8.37;7.77;;;36.60;58.10;;;;;;4978765;28;20819;-68
2021/08/21 11:27:35;;;;;;;10.50;9.47;;;36.60;57.60;;;;;;4978723;28;20534;-67
2021/08/21 11:30:26;;;;;;;7.83;7.23;;;36.10;57.00;;;;;;4978943;28;20447;-67
2021/08/21 11:33:13;;;;;;;7.30;6.73;;;35.50;59.70;;;;;;4978621;28;20431;-68
2021/08/21 11:35:52;;;;;;;6.60;6.10;;;35.60;59.80;;;;;;4978595;28;20430;-68
2021/08/21 11:38:30;;;;;;;7.60;6.03;;;35.60;58.80;;;;;;4978389;28;20438;-67
2021/08/21 11:40:58;;;;;;;6.90;6.30;;;35.00;59.80;;;;;;4978144;28;20980;-67
2021/08/21 11:43:27;;;;;;;10.53;7.43;;;35.00;60.40;;;;;;4978550;28;20446;-67
2021/08/21 11:45:54;;;;;;;7.27;6.67;;;34.80;60.00;;;;;;4978340;28;20478;-67
2021/08/21 11:48:27;;;;;;;7.37;6.87;;;34.50;61.50;;;;;;4978091;28;20454;-68
2021/08/21 11:50:53;;;;;;;6.87;6.37;;;34.40;61.50;;;;;;4978411;28;20509;-66
2021/08/21 11:53:23;;;;;;;6.73;6.27;;;34.40;62.90;;;;;;4979045;28;20458;-68
2021/08/21 11:55:52;;;;;;;7.93;7.23;;;34.40;65.70;;;;;;4977799;28;20453;-67
2021/08/21 11:58:28;;;;;;;7.10;6.60;;;34.20;64.00;;;;;;4977845;28;20458;-68
2021/08/21 12:00:55;;;;;;;8.50;7.30;;;34.20;65.70;;;;;;4977778;28;20521;-67
2021/08/21 12:03:34;;;;;;;7.33;6.83;;;34.10;62.80;;;;;;4977324;28;20460;-67
2021/08/21 12:06:00;;;;;;;9.43;8.67;;;33.80;64.10;;;;;;4977477;28;20876;-67
2021/08/21 12:08:29;;;;;;;8.27;7.57;;;33.00;63.20;;;;;;4982863;28;20465;-67
2021/08/21 12:10:57;;;;;;;7.60;7.10;;;32.80;66.10;;;;;;4984279;28;20474;-67
2021/08/21 12:13:29;;;;;;;6.57;6.07;;;32.40;66.30;;;;;;4979061;28;20450;-68
2021/08/21 12:15:59;;;;;;;7.40;6.80;;;32.80;69.10;;;;;;4977779;28;20451;-67
2021/08/21 12:18:27;;;;;;;7.00;6.50;;;32.70;64.80;;;;;;4977979;28;20509;-67
2021/08/21 12:20:54;;;;;;;6.50;5.87;;;32.60;66.30;;;;;;4977416;28;20477;-67
2021/08/21 12:23:22;;;;;;;6.50;5.90;;;32.40;67.60;;;;;;4977502;28;20454;-67
2021/08/21 12:25:52;;;;;;;6.43;6.03;;;32.00;66.60;;;;;;4977680;28;20478;-68
2021/08/21 12:28:21;;;;;;;6.03;5.53;;;31.70;70.20;;;;;;4977637;28;20446;-67
2021/08/21 12:31:02;;;;;;;7.60;6.90;;;31.70;69.80;;;;;;4977548;28;20519;-68
2021/08/21 12:33:32;;;;;;;7.70;7.10;;;31.60;68.50;;;;;;4977852;28;20511;-68
2021/08/21 12:36:10;;;;;;;8.00;7.40;;;31.70;72.90;;;;;;4977314;28;20454;-67
2021/08/21 12:38:36;;;;;;;6.73;6.20;;;31.40;72.20;;;;;;4978284;28;20461;-68
2021/08/21 12:41:06;;;;;;;7.23;6.63;;;31.20;79.20;;;;;;4977021;28;20475;-68
2021/08/21 12:43:33;;;;;;;6.40;6.00;;;30.90;73.40;;;;;;4977250;28;20462;-67
2021/08/21 12:46:01;;;;;;;9.33;6.20;;;30.90;72.90;;;;;;4977124;28;20486;-67
2021/08/21 12:48:28;;;;;;;7.03;6.53;;;30.90;72.90;;;;;;4977362;28;20451;-67
2021/08/21 12:50:55;;;;;;;7.33;6.73;;;30.90;73.40;;;;;;4977202;28;20866;-67
2021/08/21 12:53:24;;;;;;;6.90;6.40;;;30.90;72.60;;;;;;4977468;28;20463;-67
2021/08/21 12:56:09;;;;;;;7.53;6.90;;;30.80;74.10;;;;;;4977029;28;20509;-67
2021/08/21 12:58:37;;;;;;;6.37;5.80;;;30.60;74.10;;;;;;4977111;28;20446;-68
2021/08/21 13:01:08;;;;;;;6.87;6.27;;;30.50;76.40;;;;;;4976680;28;20493;-66
2021/08/21 13:03:36;;;;;;;6.80;6.33;;;30.50;81.90;;;;;;4976556;28;20515;-66
2021/08/21 13:06:03;;;;;;;6.80;6.30;;;30.60;79.40;;;;;;4976569;28;20479;-67
2021/08/21 13:08:34;;;;;;;6.23;5.70;;;30.40;76.60;;;;;;4976685;28;20481;-66
2021/08/21 13:11:01;;;;;;;6.73;6.23;;;30.50;80.50;;;;;;4975915;28;20483;-66
2021/08/21 13:13:29;;;;;;;6.97;6.47;;;30.30;80.10;;;;;;4976169;28;20997;-66
2021/08/21 13:16:02;;;;;;;6.67;6.17;;;29.80;81.50;;;;;;4976458;28;20459;-67
2021/08/21 13:18:29;;;;;;;6.50;6.10;;;29.60;80.80;;;;;;4975902;28;20914;-67
2021/08/21 13:20:56;;;;;;;7.53;5.73;;;29.80;78.00;;;;;;4976402;28;20530;-66
2021/08/21 13:23:22;;;;;;;5.70;5.40;;;29.90;78.20;;;;;;4976371;28;20461;-66
2021/08/21 13:25:49;;;;;;;6.03;5.63;;;30.20;79.20;;;;;;4975770;28;20479;-66
2021/08/21 13:28:16;;;;;;;6.10;5.70;;;30.20;76.10;;;;;;4980862;28;20461;-67
2021/08/21 13:30:44;;;;;;;7.70;6.07;;;30.30;75.30;;;;;;4993422;28;20485;-67
2021/08/21 13:33:11;;;;;;;6.20;5.87;;;30.30;78.00;;;;;;4980144;28;20458;-67
2021/08/21 13:35:37;;;;;;;6.83;6.33;;;30.20;81.10;;;;;;4975670;28;20896;-67
2021/08/21 13:38:04;;;;;;;6.90;6.40;;;30.50;75.20;;;;;;4975820;28;20459;-66
2021/08/21 13:40:31;;;;;;;6.00;5.50;;;31.00;74.10;;;;;;4975673;28;20454;-66
2021/08/21 13:42:57;;;;;;;6.23;5.83;;;31.30;73.30;;;;;;4975658;28;20477;-68
2021/08/21 13:45:24;;;;;;;6.47;5.87;;;31.60;73.80;;;;;;4975414;28;20482;-66
2021/08/21 13:47:52;;;;;;;6.17;5.70;;;32.00;75.20;;;;;;4976223;28;20459;-67
2021/08/21 13:50:19;;;;;;;6.87;6.20;;;32.30;73.60;;;;;;4975718;28;20465;-67
2021/08/21 13:52:46;;;;;;;6.57;6.17;;;32.60;69.60;;;;;;4975589;28;20466;-67
2021/08/21 13:55:12;;;;;;;6.37;5.87;;;32.80;70.90;;;;;;4975978;28;20457;-67
2021/08/21 13:57:40;;;;;;;6.07;5.67;;;32.90;72.30;;;;;;4976357;28;20466;-67
2021/08/21 14:00:08;;;;;;;5.43;5.03;;;32.70;64.80;;;;;;4975804;28;20454;-67
2021/08/21 14:02:35;;;;;;;6.70;6.30;;;32.60;66.80;;;;;;4975358;28;20483;-67
2021/08/21 14:05:03;;;;;;;6.57;6.03;;;32.70;64.70;;;;;;4975715;28;20482;-67
2021/08/21 14:07:29;;;;;;;6.37;5.87;;;32.40;65.90;;;;;;4975681;28;20969;-67
2021/08/21 14:09:56;;;;;;;5.93;5.43;;;32.30;67.80;;;;;;4976163;28;20454;-67
2021/08/21 14:12:23;;;;;;;6.30;5.80;;;32.30;64.20;;;;;;4976425;28;20478;-67
2021/08/21 14:14:52;;;;;;;5.80;5.40;;;32.50;67.40;;;;;;4976562;28;20462;-67
2021/08/21 14:17:19;;;;;;;6.27;5.77;;;32.50;71.50;;;;;;4976384;28;20490;-67
2021/08/21 14:19:46;;;;;;;6.10;5.70;;;32.40;72.70;;;;;;4976730;28;20477;-67
2021/08/21 14:22:15;;;;;;;6.93;6.43;;;32.30;72.40;;;;;;4980328;28;20990;-67
2021/08/21 14:24:42;;;;;;;6.47;6.07;;;32.60;71.40;;;;;;4980808;28;20946;-67
2021/08/21 14:27:09;;;;;;;8.00;5.90;;;32.40;73.30;;;;;;4980348;28;20489;-67
2021/08/21 14:29:35;;;;;;;6.03;5.63;;;32.60;76.50;;;;;;4981267;28;20454;-67
2021/08/21 14:32:03;;;;;;;10.33;6.07;;;32.50;73.20;;;;;;4980629;28;20474;-67
2021/08/21 14:34:29;;;;;;;5.97;5.30;;;32.70;73.10;;;;;;4981215;28;20869;-67
2021/08/21 14:36:56;;;;;;;6.53;6.13;;;32.80;70.40;;;;;;4982254;28;20446;-67
2021/08/21 14:39:24;;;;;;;6.87;6.30;;;33.00;69.30;;;;;;4980560;28;20493;-67
2021/08/21 14:41:51;;;;;;;6.60;6.00;;;32.70;69.90;;;;;;4981026;28;20817;-67
2021/08/21 14:44:18;;;;;;;6.23;5.73;;;32.90;69.30;;;;;;4980751;28;20458;-67
2021/08/21 14:46:44;;;;;;;5.93;5.50;;;32.70;71.50;;;;;;4980196;28;21007;-67
2021/08/21 14:49:11;;;;;;;5.73;5.37;;;32.80;72.10;;;;;;4980194;28;20792;-67
2021/08/21 14:51:38;;;;;;;6.13;5.73;;;32.80;70.10;;;;;;4980774;28;20478;-67
2021/08/21 14:54:05;;;;;;;7.13;6.60;;;32.90;69.20;;;;;;4980476;28;20942;-67
2021/08/21 14:56:33;;;;;;;6.27;5.77;;;32.90;70.10;;;;;;4980552;28;20483;-67
2021/08/21 14:59:00;;;;;;;5.70;5.30;;;32.70;71.50;;;;;;4979782;28;20465;-67
2021/08/21 15:01:27;;;;;;;7.00;6.40;;;32.60;70.10;;;;;;4979946;28;20481;-67
2021/08/21 15:03:55;;;;;;;6.60;6.10;;;32.30;73.00;;;;;;4979980;28;20824;-67
2021/08/21 15:06:22;;;;;;;7.33;6.63;;;32.60;72.30;;;;;;4979832;28;20565;-67
2021/08/21 15:08:49;;;;;;;6.27;5.67;;;32.40;68.20;;;;;;4979744;28;20454;-67
2021/08/21 15:11:15;;;;;;;6.43;5.93;;;32.50;69.10;;;;;;4979622;28;20981;-67
2021/08/21 15:13:43;;;;;;;6.27;5.87;;;32.50;69.70;;;;;;4979882;28;20457;-67
2021/08/21 15:16:10;;;;;;;5.63;5.33;;;32.40;68.60;;;;;;4979489;28;20454;-67
2021/08/21 15:18:37;;;;;;;6.80;6.20;;;32.40;72.20;;;;;;4980660;28;20450;-67
2021/08/21 15:21:04;;;;;;;7.03;6.30;;;32.40;69.80;;;;;;4979625;28;20478;-67
2021/08/21 15:23:32;;;;;;;6.23;5.83;;;32.40;69.10;;;;;;4978630;28;20442;-66
2021/08/21 15:26:00;;;;;;;6.60;6.20;;;32.30;68.30;;;;;;4978315;28;20490;-66
2021/08/21 15:28:27;;;;;;;6.70;6.10;;;32.30;71.10;;;;;;4978417;28;20462;-66
2021/08/21 15:30:55;;;;;;;6.60;6.00;;;32.20;71.80;;;;;;4978292;28;20474;-66
2021/08/21 15:33:22;;;;;;;5.93;5.53;;;32.30;74.70;;;;;;4977779;28;20454;-66
2021/08/21 15:35:49;;;;;;;6.10;5.70;;;32.20;72.90;;;;;;4977619;28;20950;-66
2021/08/21 15:38:18;;;;;;;6.20;5.70;;;32.20;72.10;;;;;;4978390;28;20461;-66
2021/08/21 15:40:44;;;;;;;6.17;5.77;;;32.10;70.80;;;;;;4978083;28;20510;-66
2021/08/21 15:43:12;;;;;;;6.47;6.00;;;32.10;72.50;;;;;;4978139;28;20454;-66
2021/08/21 15:45:39;;;;;;;7.53;6.93;;;32.00;71.70;;;;;;4977735;28;20569;-66
2021/08/21 15:48:08;;;;;;;6.07;5.67;;;31.80;72.40;;;;;;4978025;28;20463;-66
2021/08/21 15:50:35;;;;;;;6.60;6.20;;;31.90;73.40;;;;;;4978113;28;20474;-66
2021/08/21 15:53:02;;;;;;;7.00;5.30;;;31.80;73.80;;;;;;4978471;28;20517;-68
2021/08/21 15:55:29;;;;;;;5.60;5.30;;;31.70;73.00;;;;;;4977662;28;20949;-67
2021/08/21 15:57:56;;;;;;;6.93;6.53;;;31.60;72.60;;;;;;4977637;28;20950;-67
2021/08/21 16:00:24;;;;;;;6.67;6.13;;;31.60;72.30;;;;;;4977064;28;20942;-67
2021/08/21 16:02:50;;;;;;;6.20;5.80;;;31.50;72.00;;;;;;4977857;28;20482;-67
2021/08/21 16:05:18;;;;;;;6.20;5.70;;;31.50;74.00;;;;;;4977611;28;20957;-66
2021/08/21 16:07:45;;;;;;;6.13;5.63;;;31.50;75.30;;;;;;4977267;28;20454;-67
2021/08/21 16:10:12;;;;;;;7.17;5.67;;;31.30;76.40;;;;;;4977872;28;20928;-65
2021/08/21 16:12:39;;;;;;;5.47;5.17;;;31.20;74.60;;;;;;4977462;28;20478;-67
2021/08/21 16:15:06;;;;;;;6.97;6.10;;;31.00;74.00;;;;;;4977528;28;20461;-67
2021/08/21 16:17:33;;;;;;;6.03;5.53;;;30.80;75.80;;;;;;4977769;28;20457;-67
2021/08/21 16:20:00;;;;;;;6.73;6.07;;;30.70;76.80;;;;;;4977631;28;20462;-67
2021/08/21 16:22:28;;;;;;;5.17;4.87;;;30.60;76.10;;;;;;4978325;28;20815;-66
2021/08/21 16:24:55;;;;;;;5.83;5.37;;;30.40;76.70;;;;;;4977189;28;20458;-66
2021/08/21 16:27:22;;;;;;;5.57;5.17;;;30.20;77.30;;;;;;4977328;28;20478;-67
2021/08/21 16:29:49;;;;;;;6.30;5.70;;;30.00;77.80;;;;;;4977399;28;20827;-67
2021/08/21 16:32:16;;;;;;;5.80;5.20;;;29.80;79.40;;;;;;4976844;28;20541;-67
2021/08/21 16:34:44;;;;;;;5.57;5.13;;;29.70;79.20;;;;;;4976988;28;20457;-65
2021/08/21 16:37:11;;;;;;;5.47;4.97;;;29.70;79.00;;;;;;4976868;28;20451;-65
2021/08/21 16:39:40;;;;;;;5.80;5.40;;;29.40;79.50;;;;;;4977129;28;20471;-65
2021/08/21 16:42:09;;;;;;;5.40;5.00;;;29.30;79.60;;;;;;4977061;28;20481;-67
2021/08/21 16:44:35;;;;;;;5.43;5.03;;;29.30;81.80;;;;;;4976186;28;20455;-66
2021/08/21 16:47:02;;;;;;;6.13;5.20;;;29.20;80.90;;;;;;4980358;28;21008;-67
2021/08/21 16:49:29;;;;;;;4.87;4.50;;;29.20;82.30;;;;;;4993191;28;20454;-67
2021/08/21 16:51:56;;;;;;;6.30;5.90;;;29.10;82.20;;;;;;4985060;28;20485;-67
2021/08/21 16:54:24;;;;;;;6.53;5.53;;;29.10;82.70;;;;;;4977677;28;20455;-67